Time;durP1;ratioP1;P1;durP2;ratioP2;P2;SDS_P1;SDS_P2;PMS_P1;PMS_P2;Temp;Humidity;BMP_temperature;BMP_pressure;BME280_temperature;BME280_humidity;BME280_pressure;Samples;Min_cycle;Max_cycle;Signal;HPM_P1;HPM_P2
2023/03/15 00:01:40;;;;;;;4.28;2.05;;;;;;;11.60;59.83;98510.34;4396744;32;20089;-94
2023/03/15 00:04:06;;;;;;;2.28;0.70;;;;;;;11.66;59.82;98510.00;4385344;32;20136;-94
2023/03/15 00:06:33;;;;;;;1.10;0.65;;;;;;;11.67;59.83;98525.56;4399448;32;20391;-94
2023/03/15 00:09:00;;;;;;;5.40;0.80;;;;;;;11.56;59.82;98524.47;4380567;32;20466;-95
2023/03/15 00:11:26;;;;;;;0.80;0.70;;;;;;;11.57;59.82;98523.53;4371712;32;20490;-95
2023/03/15 00:13:52;;;;;;;0.60;0.52;;;;;;;11.43;59.81;98532.13;4381539;32;20118;-95
2023/03/15 00:16:17;;;;;;;1.27;0.60;;;;;;;11.29;59.80;98542.44;4384234;32;20150;-93
2023/03/15 00:18:45;;;;;;;1.48;0.45;;;;;;;11.28;59.80;98532.97;4409309;32;20133;-93
2023/03/15 00:21:14;;;;;;;1.23;0.85;;;;;;;11.19;59.80;98546.50;4381486;32;20149;-94
2023/03/15 00:23:39;;;;;;;2.78;0.60;;;;;;;11.24;59.80;98545.31;4369667;32;20154;-92
2023/03/15 00:26:05;;;;;;;1.10;0.85;;;;;;;11.27;59.81;98544.31;4383397;32;20110;-94
2023/03/15 00:28:33;;;;;;;2.10;0.57;;;;;;;11.30;59.81;98550.19;4382963;32;20786;-94
2023/03/15 00:31:16;;;;;;;0.73;0.73;;;;;;;11.30;59.81;98550.19;4380650;32;20121;-93
2023/03/15 00:33:42;;;;;;;0.85;0.57;;;;;;;11.13;59.80;98541.62;4372539;32;20133;-92
2023/03/15 00:36:08;;;;;;;1.00;0.70;;;;;;;11.12;59.80;98547.72;4387763;32;20513;-94
2023/03/15 00:38:37;;;;;;;1.58;0.68;;;;;;;11.05;59.79;98539.41;4396860;32;20184;-94
2023/03/15 00:41:07;;;;;;;0.88;0.60;;;;;;;11.01;59.80;98546.53;4385622;32;20104;-94
2023/03/15 00:43:32;;;;;;;1.67;1.12;;;;;;;11.12;59.80;98543.38;4396815;32;20114;-94
2023/03/15 00:45:58;;;;;;;0.85;0.50;;;;;;;10.99;59.79;98532.75;4382147;32;20146;-95
2023/03/15 00:48:23;;;;;;;0.75;0.60;;;;;;;10.98;59.79;98528.47;4395862;32;20132;-94
2023/03/15 00:50:49;;;;;;;1.12;0.70;;;;;;;11.02;59.79;98522.19;4384890;32;20094;-95
2023/03/15 00:53:17;;;;;;;1.37;0.73;;;;;;;11.16;59.80;98513.63;4384053;32;20260;-93
2023/03/15 00:55:43;;;;;;;1.17;0.35;;;;;;;10.96;59.79;98513.84;4397133;32;20090;-93
2023/03/15 00:58:15;;;;;;;1.12;0.60;;;;;;;10.82;59.78;98519.78;4383920;32;20156;-91
2023/03/15 01:00:41;;;;;;;0.80;0.65;;;;;;;10.88;59.78;98516.00;4411054;32;20116;-95
2023/03/15 01:03:09;;;;;;;0.62;0.43;;;;;;;10.78;59.78;98518.25;4381010;32;20158;-95
2023/03/15 01:05:35;;;;;;;1.12;0.70;;;;;;;10.64;59.77;98525.94;4370028;32;20447;-95
2023/03/15 01:08:01;;;;;;;5.40;0.75;;;;;;;10.65;59.77;98518.09;4371250;32;20117;-91
2023/03/15 01:10:27;;;;;;;2.58;0.73;;;;;;;10.73;59.78;98523.72;4372889;32;20098;-93
2023/03/15 01:12:52;;;;;;;1.37;0.57;;;;;;;10.86;59.78;98520.47;4375750;32;20113;-92
2023/03/15 01:15:18;;;;;;;1.12;0.40;;;;;;;10.65;59.77;98525.88;4391186;32;20201;-92
2023/03/15 01:17:44;;;;;;;0.60;0.55;;;;;;;10.57;59.77;98527.19;4396991;32;20197;-93
2023/03/15 01:20:13;;;;;;;1.30;0.68;;;;;;;10.49;59.76;98514.56;4373244;32;20098;-93
2023/03/15 01:22:38;;;;;;;1.73;0.68;;;;;;;10.47;59.76;98524.22;4374881;32;20161;-93
2023/03/15 01:25:05;;;;;;;1.25;0.80;;;;;;;10.49;59.76;98524.16;4377578;32;20162;-93
2023/03/15 01:27:32;;;;;;;0.88;0.65;;;;;;;10.49;59.77;98517.19;4401981;32;20417;-93
2023/03/15 01:29:57;;;;;;;1.23;0.60;;;;;;;10.55;59.76;98526.44;4395217;32;20104;-93
2023/03/15 01:32:23;;;;;;;1.48;0.98;;;;;;;10.57;59.77;98517.63;4384521;32;20121;-92
2023/03/15 01:34:48;;;;;;;1.10;0.60;;;;;;;10.50;59.77;98516.25;4384642;32;20155;-92
2023/03/15 01:37:14;;;;;;;1.55;0.80;;;;;;;10.62;59.76;98523.41;4390232;32;20125;-91
2023/03/15 01:39:42;;;;;;;0.80;0.50;;;;;;;10.72;59.78;98514.22;4400745;32;20165;-94
2023/03/15 01:42:07;;;;;;;1.23;0.70;;;;;;;10.80;59.78;98516.41;4397529;32;20513;-92
2023/03/15 01:44:55;;;;;;;0.95;0.60;;;;;;;10.83;59.78;98521.47;4384699;32;20109;-94
2023/03/15 01:47:24;;;;;;;2.03;0.70;;;;;;;10.61;59.76;98539.94;4387789;32;20111;-94
2023/03/15 01:49:53;;;;;;;2.35;0.80;;;;;;;10.68;59.77;98524.88;4375280;32;20074;-93
2023/03/15 01:52:24;;;;;;;1.55;0.73;;;;;;;10.76;59.77;98538.34;4385106;32;20233;-93
2023/03/15 01:54:57;;;;;;;1.40;0.80;;;;;;;10.74;59.78;98538.41;4398371;32;20092;-92
2023/03/15 01:57:35;;;;;;;3.30;0.70;;;;;;;10.72;59.78;98531.59;4387359;32;20159;-91
2023/03/15 02:00:10;;;;;;;1.45;0.60;;;;;;;10.69;59.78;98537.81;4398256;32;20116;-94
2023/03/15 02:02:35;;;;;;;1.35;0.60;;;;;;;10.73;59.77;98534.12;4382531;32;20165;-94
2023/03/15 02:05:08;;;;;;;3.10;0.70;;;;;;;10.86;59.79;98536.06;4364045;32;20110;-94
2023/03/15 02:07:34;;;;;;;1.52;0.65;;;;;;;10.78;59.78;98526.06;4385125;32;20792;-93
2023/03/15 02:10:07;;;;;;;2.25;0.93;;;;;;;10.69;59.78;98532.59;4385213;32;20119;-92
2023/03/15 02:12:37;;;;;;;2.58;0.50;;;;;;;10.67;59.77;98544.03;4397672;32;20164;-93
2023/03/15 02:15:04;;;;;;;1.13;0.70;;;;;;;10.35;59.75;98537.84;4397246;32;20075;-93
2023/03/15 02:17:35;;;;;;;3.40;0.80;;;;;;;10.40;59.76;98535.84;4394953;32;20102;-92
2023/03/15 02:20:04;;;;;;;3.28;0.70;;;;;;;10.36;59.76;98539.50;4367933;32;20094;-93
2023/03/15 02:22:45;;;;;;;0.80;0.70;;;;;;;10.47;59.75;98552.00;4401866;32;20277;-92
2023/03/15 02:25:30;;;;;;;1.08;0.70;;;;;;;10.30;59.75;98543.28;4409775;32;20448;-92
2023/03/15 02:27:55;;;;;;;1.15;0.60;;;;;;;10.27;59.75;98529.59;4406260;32;20102;-93
2023/03/15 02:30:21;;;;;;;2.28;1.08;;;;;;;10.13;59.75;98549.28;4397227;32;20102;-93
2023/03/15 02:32:46;;;;;;;0.80;0.50;;;;;;;10.24;59.74;98540.16;4392261;32;20114;-93
2023/03/15 02:35:18;;;;;;;3.12;0.80;;;;;;;10.25;59.75;98539.22;4384158;32;20140;-92
2023/03/15 02:37:44;;;;;;;1.23;0.65;;;;;;;10.29;59.75;98535.56;4387151;32;20079;-93
2023/03/15 02:40:23;;;;;;;1.85;0.50;;;;;;;10.22;59.74;98526.38;4374831;32;20094;-94
2023/03/15 02:42:52;;;;;;;2.97;0.73;;;;;;;10.20;59.74;98529.03;4384827;32;20102;-91
2023/03/15 02:45:17;;;;;;;2.37;1.08;;;;;;;10.11;59.75;98529.47;4397716;32;20066;-91
2023/03/15 02:47:45;;;;;;;1.40;0.90;;;;;;;10.12;59.75;98536.34;4383768;32;20541;-93
2023/03/15 02:50:10;;;;;;;0.70;0.52;;;;;;;10.03;59.74;98549.81;4390148;32;20224;-93
2023/03/15 02:52:36;;;;;;;0.85;0.57;;;;;;;9.92;59.73;98542.53;4409277;32;20174;-92
2023/03/15 02:55:01;;;;;;;1.80;0.80;;;;;;;9.93;59.73;98543.34;4380296;32;20105;-93
2023/03/15 02:57:27;;;;;;;1.12;0.65;;;;;;;10.09;59.75;98545.16;4368165;32;20379;-91
2023/03/15 02:59:54;;;;;;;2.55;0.90;;;;;;;10.05;59.74;98553.19;4383809;32;20109;-93
2023/03/15 03:02:20;;;;;;;1.50;0.95;;;;;;;10.04;59.74;98523.75;4395166;32;20154;-92
2023/03/15 03:04:46;;;;;;;1.62;0.90;;;;;;;10.02;59.73;98537.72;4376865;32;20110;-92
2023/03/15 03:07:11;;;;;;;2.37;1.00;;;;;;;10.10;59.75;98532.97;4378700;32;20112;-91
2023/03/15 03:09:37;;;;;;;1.67;1.00;;;;;;;9.81;59.73;98537.00;4388025;32;20367;-90
2023/03/15 03:12:03;;;;;;;1.23;1.00;;;;;;;9.73;59.72;98545.19;4370146;32;20201;-89
2023/03/15 03:14:28;;;;;;;2.17;1.08;;;;;;;9.68;59.72;98539.34;4383500;32;20128;-89
2023/03/15 03:16:53;;;;;;;2.40;0.73;;;;;;;9.71;59.72;98543.59;4385628;32;20134;-91
2023/03/15 03:19:24;;;;;;;0.90;0.80;;;;;;;9.61;59.71;98542.31;4375072;32;20097;-91
2023/03/15 03:21:52;;;;;;;1.30;1.00;;;;;;;9.84;59.72;98542.91;4384337;32;20132;-92
2023/03/15 03:24:18;;;;;;;1.62;1.20;;;;;;;9.79;59.73;98538.84;4382156;32;20098;-93
2023/03/15 03:26:44;;;;;;;1.20;0.70;;;;;;;9.58;59.72;98545.06;4381317;32;20112;-92
2023/03/15 03:29:10;;;;;;;0.82;0.80;;;;;;;9.48;59.70;98542.91;4396787;32;20107;-91
2023/03/15 03:31:35;;;;;;;1.55;0.90;;;;;;;9.61;59.71;98529.31;4381738;32;20157;-92
2023/03/15 03:34:01;;;;;;;1.37;0.95;;;;;;;9.74;59.73;98551.22;4364678;32;20146;-91
2023/03/15 03:36:27;;;;;;;1.42;1.00;;;;;;;9.74;59.73;98526.06;4386855;32;20098;-93
2023/03/15 03:38:52;;;;;;;1.37;0.80;;;;;;;9.70;59.72;98532.34;4385139;32;20153;-95
2023/03/15 03:41:18;;;;;;;1.65;1.05;;;;;;;9.70;59.72;98529.75;4372860;32;20153;-95
2023/03/15 03:43:43;;;;;;;1.48;0.90;;;;;;;9.85;59.73;98522.94;4385456;32;20158;-94
2023/03/15 03:46:09;;;;;;;1.65;0.85;;;;;;;9.77;59.72;98541.53;4384525;32;20087;-95
2023/03/15 03:48:34;;;;;;;1.33;0.98;;;;;;;9.63;59.71;98528.34;4375857;32;20415;-94
2023/03/15 03:51:00;;;;;;;1.02;0.77;;;;;;;9.68;59.72;98525.50;4381660;32;20142;-94
2023/03/15 03:53:25;;;;;;;0.85;0.80;;;;;;;9.68;59.72;98523.75;4384592;32;20145;-95
2023/03/15 03:55:51;;;;;;;1.23;0.70;;;;;;;9.65;59.72;98523.06;4384692;32;20098;-95
2023/03/15 03:58:16;;;;;;;0.90;0.90;;;;;;;9.66;59.71;98522.16;4397626;32;20458;-93
2023/03/15 04:00:42;;;;;;;1.08;0.85;;;;;;;9.77;59.72;98522.50;4383781;32;20124;-95
2023/03/15 04:03:07;;;;;;;1.10;0.82;;;;;;;9.84;59.73;98534.25;4397717;32;20098;-95
2023/03/15 04:05:33;;;;;;;2.08;0.98;;;;;;;9.85;59.72;98533.34;4385136;32;20113;-95
2023/03/15 04:07:58;;;;;;;0.80;0.55;;;;;;;9.90;59.73;98538.31;4384555;32;20125;-95
2023/03/15 04:10:27;;;;;;;1.17;0.68;;;;;;;9.82;59.73;98549.09;4372825;32;20133;-94
2023/03/15 04:12:56;;;;;;;0.95;0.70;;;;;;;9.85;59.73;98554.97;4389946;32;20090;-95
2023/03/15 04:15:22;;;;;;;1.55;0.70;;;;;;;9.89;59.73;98558.25;4374512;32;20086;-92
2023/03/15 04:17:54;;;;;;;3.03;0.90;;;;;;;9.81;59.73;98573.41;4389120;32;20085;-93
2023/03/15 04:20:25;;;;;;;0.75;0.60;;;;;;;9.75;59.72;98577.13;4393661;32;20122;-93
2023/03/15 04:22:51;;;;;;;1.23;0.75;;;;;;;9.65;59.72;98590.63;4376980;32;20129;-92
2023/03/15 04:25:20;;;;;;;1.05;0.60;;;;;;;9.52;59.71;98590.34;4381092;32;20098;-91
2023/03/15 04:27:45;;;;;;;1.05;0.80;;;;;;;9.42;59.71;98599.47;4377726;32;20120;-92
2023/03/15 04:30:11;;;;;;;1.23;0.80;;;;;;;9.52;59.71;98600.75;4384626;32;20113;-94
2023/03/15 04:32:37;;;;;;;0.47;0.47;;;;;;;9.32;59.70;98606.84;4384800;32;20148;-96
2023/03/15 04:35:04;;;;;;;0.68;0.52;;;;;;;9.21;59.70;98614.25;4384620;32;20108;-95
2023/03/15 04:37:31;;;;;;;1.98;0.75;;;;;;;9.23;59.70;98615.06;4394929;32;20435;-94
2023/03/15 04:39:56;;;;;;;1.17;0.70;;;;;;;9.26;59.71;98622.72;4384401;32;20126;-96
2023/03/15 04:42:22;;;;;;;0.65;0.55;;;;;;;9.15;59.69;98625.75;4382251;32;20129;-95
2023/03/15 04:44:48;;;;;;;0.80;0.50;;;;;;;8.98;59.68;98627.41;4371623;32;20124;-96
2023/03/15 04:47:14;;;;;;;1.12;0.47;;;;;;;8.93;59.67;98612.88;4382447;32;20105;-95
2023/03/15 04:49:39;;;;;;;0.90;0.50;;;;;;;9.06;59.69;98633.97;4359073;32;20174;-94
2023/03/15 04:52:05;;;;;;;0.62;0.50;;;;;;;9.05;59.68;98640.06;4386606;32;20153;-95
2023/03/15 04:54:30;;;;;;;1.20;0.35;;;;;;;8.86;59.67;98652.16;4384923;32;20146;-95
2023/03/15 04:56:56;;;;;;;0.77;0.60;;;;;;;8.82;59.68;98656.62;4367236;32;20113;-94
2023/03/15 04:59:21;;;;;;;1.50;0.47;;;;;;;8.72;59.66;98663.09;4386707;32;20114;-95
2023/03/15 05:01:47;;;;;;;0.50;0.40;;;;;;;8.76;59.67;98663.84;4386944;32;20509;-95
2023/03/15 05:04:12;;;;;;;0.93;0.50;;;;;;;8.65;59.66;98666.84;4396015;32;20467;-90
2023/03/15 05:06:38;;;;;;;1.25;0.68;;;;;;;8.56;59.66;98681.06;4384857;32;20337;-93
2023/03/15 05:09:03;;;;;;;1.20;0.77;;;;;;;8.77;59.67;98681.09;4385735;32;20155;-94
2023/03/15 05:11:28;;;;;;;1.48;0.70;;;;;;;8.36;59.64;98683.59;4393476;32;20130;-93
2023/03/15 05:13:54;;;;;;;0.90;0.68;;;;;;;8.39;59.65;98669.66;4410510;32;20165;-94
2023/03/15 05:16:19;;;;;;;0.90;0.80;;;;;;;8.25;59.64;98673.63;4385828;32;20124;-96
2023/03/15 05:18:45;;;;;;;1.73;0.88;;;;;;;8.32;59.65;98663.88;4398812;32;20148;-94
2023/03/15 05:21:11;;;;;;;1.45;0.90;;;;;;;8.19;59.64;98660.06;4396168;32;20411;-93
2023/03/15 05:23:37;;;;;;;1.30;1.10;;;;;;;8.02;59.63;98664.16;4396986;32;20157;-94
2023/03/15 05:26:03;;;;;;;2.42;1.27;;;;;;;7.87;59.62;98663.91;4386057;32;20150;-94
2023/03/15 05:28:28;;;;;;;2.00;1.15;;;;;;;8.13;59.63;98663.75;4383001;32;20102;-93
2023/03/15 05:30:53;;;;;;;1.80;1.02;;;;;;;7.94;59.62;98663.62;4365038;32;20177;-94
2023/03/15 05:33:19;;;;;;;4.37;1.20;;;;;;;8.07;59.64;98664.00;4396418;32;20130;-94
2023/03/15 05:35:45;;;;;;;2.37;1.35;;;;;;;8.15;59.64;98661.09;4385192;32;20101;-94
2023/03/15 05:38:14;;;;;;;2.05;1.30;;;;;;;8.21;59.63;98663.44;4385352;32;20117;-93
2023/03/15 05:40:44;;;;;;;4.37;1.60;;;;;;;8.16;59.64;98666.22;4382912;32;20126;-95
2023/03/15 05:43:09;;;;;;;2.40;1.65;;;;;;;8.15;59.65;98663.69;4380346;32;20225;-95
2023/03/15 05:45:35;;;;;;;2.17;1.50;;;;;;;8.16;59.64;98658.44;4376741;32;20083;-92
2023/03/15 05:48:00;;;;;;;2.35;1.77;;;;;;;7.72;59.61;98654.97;4372092;32;20102;-92
2023/03/15 05:50:27;;;;;;;3.45;1.62;;;;;;;7.89;59.62;98659.53;4384867;32;20213;-92
2023/03/15 05:52:52;;;;;;;1.95;1.75;;;;;;;7.86;59.62;98649.28;4386345;32;20098;-92
2023/03/15 05:55:18;;;;;;;2.12;1.92;;;;;;;7.53;59.59;98657.41;4397939;32;20121;-93
2023/03/15 05:57:43;;;;;;;4.22;1.98;;;;;;;7.55;59.61;98658.19;4385094;32;20113;-94
2023/03/15 06:00:09;;;;;;;6.03;1.77;;;;;;;7.73;59.61;98655.81;4384973;32;20180;-92
2023/03/15 06:02:35;;;;;;;1.83;1.48;;;;;;;7.72;59.61;98657.56;4406158;32;20825;-94
2023/03/15 06:05:00;;;;;;;4.20;1.87;;;;;;;7.75;59.61;98659.19;4378579;32;20122;-94
2023/03/15 06:07:26;;;;;;;4.35;2.00;;;;;;;7.73;59.61;98666.19;4379815;32;20162;-94
2023/03/15 06:09:51;;;;;;;3.35;2.10;;;;;;;7.67;59.61;98664.66;4385152;32;20102;-95
2023/03/15 06:12:17;;;;;;;4.03;2.15;;;;;;;7.63;59.61;98670.88;4385058;32;20143;-93
2023/03/15 06:14:42;;;;;;;2.55;1.73;;;;;;;7.54;59.59;98661.69;4382514;32;20142;-93
2023/03/15 06:17:08;;;;;;;3.65;1.80;;;;;;;7.50;59.60;98654.94;4378291;32;20154;-95
2023/03/15 06:19:33;;;;;;;3.80;2.42;;;;;;;7.62;59.61;98670.03;4379119;32;20490;-95
2023/03/15 06:21:59;;;;;;;4.78;2.45;;;;;;;7.66;59.61;98670.75;4373132;32;20139;-94
2023/03/15 06:24:24;;;;;;;4.82;2.25;;;;;;;7.50;59.60;98667.03;4380701;32;20098;-95
2023/03/15 06:26:50;;;;;;;3.45;2.25;;;;;;;7.47;59.60;98673.16;4382989;32;20464;-92
2023/03/15 06:29:16;;;;;;;5.57;2.72;;;;;;;7.28;59.58;98675.56;4378779;32;20205;-94
2023/03/15 06:31:41;;;;;;;3.92;2.45;;;;;;;7.36;59.59;98681.34;4399182;32;20053;-95
2023/03/15 06:34:07;;;;;;;3.03;2.00;;;;;;;7.42;59.59;98676.84;4378435;32;20164;-94
2023/03/15 06:36:33;;;;;;;3.85;2.20;;;;;;;7.51;59.60;98677.34;4372783;32;20414;-94
2023/03/15 06:38:58;;;;;;;9.10;3.03;;;;;;;7.55;59.61;98680.66;4388330;32;20118;-96
2023/03/15 06:41:24;;;;;;;4.78;2.50;;;;;;;7.66;59.60;98679.38;4385004;32;20082;-94
2023/03/15 06:43:49;;;;;;;3.72;1.98;;;;;;;7.57;59.60;98673.66;4382657;32;20475;-91
2023/03/15 06:46:15;;;;;;;5.43;2.50;;;;;;;7.51;59.60;98673.91;4381073;32;20435;-92
2023/03/15 06:48:40;;;;;;;4.18;2.70;;;;;;;7.49;59.60;98665.34;4393037;32;20123;-95
2023/03/15 06:51:06;;;;;;;2.95;2.20;;;;;;;7.58;59.60;98659.84;4384996;32;20106;-94
2023/03/15 06:53:31;;;;;;;3.58;2.17;;;;;;;7.55;59.61;98675.47;4389486;32;20142;-93
2023/03/15 06:55:59;;;;;;;5.32;2.53;;;;;;;7.46;59.59;98688.75;4395363;32;20110;-93
2023/03/15 06:58:25;;;;;;;5.55;2.62;;;;;;;7.56;59.61;98696.13;4404661;32;20129;-94
2023/03/15 07:00:51;;;;;;;4.40;2.45;;;;;;;7.49;59.60;98702.44;4382998;32;20106;-94
2023/03/15 07:03:18;;;;;;;3.72;2.10;;;;;;;7.59;59.60;98708.16;4382057;32;20359;-95
2023/03/15 07:05:44;;;;;;;6.03;2.12;;;;;;;7.82;59.61;98702.12;4383345;32;20134;-95
2023/03/15 07:08:09;;;;;;;4.97;2.53;;;;;;;7.94;59.63;98706.81;4402852;32;20175;-94
2023/03/15 07:10:35;;;;;;;3.78;2.62;;;;;;;7.95;59.63;98699.00;4382330;32;20094;-94
2023/03/15 07:13:01;;;;;;;5.47;2.62;;;;;;;7.69;59.62;98705.16;4386013;32;20152;-96
2023/03/15 07:15:27;;;;;;;5.40;2.95;;;;;;;7.87;59.62;98711.41;4386681;32;20098;-95
2023/03/15 07:17:55;;;;;;;8.93;3.80;;;;;;;7.82;59.62;98709.88;4387371;32;20148;-96
2023/03/15 07:20:21;;;;;;;38.20;14.57;;;;;;;7.75;59.61;98716.19;4387688;32;20062;-95
2023/03/15 07:22:46;;;;;;;43.65;13.73;;;;;;;7.77;59.62;98727.31;4399749;32;20181;-94
2023/03/15 07:25:12;;;;;;;23.33;7.53;;;;;;;7.82;59.61;98739.22;4386449;32;20160;-94
2023/03/15 07:27:37;;;;;;;39.13;10.43;;;;;;;7.67;59.60;98738.03;4411149;32;20125;-93
2023/03/15 07:30:03;;;;;;;29.37;9.35;;;;;;;7.70;59.61;98748.28;4395239;32;20418;-94
2023/03/15 07:32:30;;;;;;;39.50;12.93;;;;;;;7.69;59.61;98751.78;4385293;32;20085;-95
2023/03/15 07:34:59;;;;;;;30.27;9.43;;;;;;;7.66;59.60;98744.13;4386096;32;20456;-93
2023/03/15 07:37:26;;;;;;;15.77;5.62;;;;;;;7.73;59.61;98755.09;4385513;32;20132;-95
2023/03/15 07:39:51;;;;;;;14.10;5.20;;;;;;;7.74;59.61;98761.13;4394126;32;20059;-95
2023/03/15 07:42:17;;;;;;;11.98;5.47;;;;;;;7.77;59.62;98761.00;4372465;32;20103;-94
2023/03/15 07:44:45;;;;;;;6.25;3.70;;;;;;;7.59;59.60;98760.78;4382009;32;20146;-96
2023/03/15 07:47:12;;;;;;;7.65;3.80;;;;;;;7.82;59.61;98769.47;4396630;32;20102;-94
2023/03/15 07:49:38;;;;;;;5.68;3.08;;;;;;;7.79;59.61;98762.62;4395258;32;20090;-95
2023/03/15 07:52:04;;;;;;;8.18;3.75;;;;;;;7.84;59.62;98765.91;4396786;32;20082;-95
2023/03/15 07:54:36;;;;;;;9.88;3.70;;;;;;;7.76;59.62;98773.09;4402864;32;20145;-95
2023/03/15 07:57:02;;;;;;;6.40;2.80;;;;;;;7.87;59.62;98762.38;4400373;32;20145;-95
2023/03/15 07:59:27;;;;;;;6.75;3.55;;;;;;;8.16;59.64;98764.72;4377114;32;20086;-95
2023/03/15 08:01:53;;;;;;;6.72;3.08;;;;;;;8.01;59.63;98768.72;4386015;32;20472;-95
2023/03/15 08:04:18;;;;;;;7.97;2.97;;;;;;;8.00;59.63;98771.38;4386238;32;20098;-94
2023/03/15 08:06:47;;;;;;;7.80;3.28;;;;;;;7.83;59.61;98789.28;4385640;32;20101;-95
2023/03/15 08:09:14;;;;;;;10.23;3.45;;;;;;;7.65;59.61;98791.63;4386645;32;20085;-96
2023/03/15 08:11:40;;;;;;;8.23;3.28;;;;;;;7.79;59.61;98785.09;4386441;32;20127;-93
2023/03/15 08:14:05;;;;;;;10.65;4.78;;;;;;;7.99;59.63;98785.22;4385270;32;20110;-95
2023/03/15 08:16:31;;;;;;;6.93;3.78;;;;;;;7.98;59.62;98797.34;4391822;32;20150;-94
2023/03/15 08:18:56;;;;;;;8.10;3.87;;;;;;;8.10;59.63;98790.88;4410784;32;20116;-95
2023/03/15 08:21:22;;;;;;;8.07;3.85;;;;;;;8.43;59.64;98790.53;4385285;32;20101;-92
2023/03/15 08:23:47;;;;;;;8.10;3.37;;;;;;;8.15;59.64;98795.88;4380628;32;20162;-95
2023/03/15 08:26:13;;;;;;;6.93;2.97;;;;;;;8.26;59.64;98789.37;4377576;32;20106;-94
2023/03/15 08:28:38;;;;;;;6.15;2.50;;;;;;;8.25;59.64;98787.69;4384657;32;20086;-95
2023/03/15 08:31:08;;;;;;;5.78;2.10;;;;;;;8.53;59.66;98779.75;4397067;32;20101;-92
2023/03/15 08:33:33;;;;;;;5.10;2.60;;;;;;;8.20;59.64;98815.53;4398893;32;20066;-93
2023/03/15 08:35:59;;;;;;;4.47;2.42;;;;;;;8.15;59.63;98796.72;4378840;32;20157;-94
2023/03/15 08:38:28;;;;;;;6.10;2.67;;;;;;;8.25;59.64;98787.69;4385654;32;20106;-96
2023/03/15 08:40:59;;;;;;;6.43;2.60;;;;;;;8.27;59.64;98793.66;4387213;32;20710;-95
2023/03/15 08:43:25;;;;;;;5.72;2.35;;;;;;;8.26;59.64;98793.72;4399616;32;20114;-95
2023/03/15 08:45:50;;;;;;;5.82;2.00;;;;;;;8.28;59.64;98797.97;4392164;32;20129;-91
2023/03/15 08:48:17;;;;;;;6.90;2.62;;;;;;;8.00;59.63;98816.25;4397933;32;20420;-95
2023/03/15 08:50:44;;;;;;;4.93;1.87;;;;;;;7.89;59.62;98808.06;4399626;32;20476;-94
2023/03/15 08:53:09;;;;;;;4.43;1.87;;;;;;;7.89;59.62;98813.22;4349138;32;20089;-94
2023/03/15 08:55:36;;;;;;;3.20;1.58;;;;;;;7.93;59.63;98822.56;4365989;32;20102;-95
2023/03/15 08:58:02;;;;;;;3.17;1.85;;;;;;;7.89;59.62;98830.53;4361178;32;20096;-95
2023/03/15 09:00:27;;;;;;;4.07;1.58;;;;;;;7.94;59.63;98841.56;4356191;32;20125;-96
2023/03/15 09:02:54;;;;;;;10.30;2.08;;;;;;;7.70;59.61;98851.88;4368698;32;20132;-93
2023/03/15 09:05:20;;;;;;;5.90;1.90;;;;;;;7.80;59.62;98843.78;4366185;32;21444;-94
2023/03/15 09:07:47;;;;;;;9.07;2.33;;;;;;;7.47;59.60;98854.41;4347514;32;20058;-94
2023/03/15 09:10:14;;;;;;;7.78;2.35;;;;;;;7.54;59.59;98863.66;4382113;32;20130;-94
2023/03/15 09:12:46;;;;;;;7.37;2.45;;;;;;;7.72;59.61;98879.47;4354196;32;20102;-94
2023/03/15 09:15:12;;;;;;;6.15;2.87;;;;;;;7.84;59.62;98872.16;4390417;32;20172;-95
2023/03/15 09:17:38;;;;;;;6.60;2.40;;;;;;;8.11;59.63;98879.84;4378104;32;20058;-93
2023/03/15 09:20:13;;;;;;;7.80;2.08;;;;;;;8.26;59.64;98881.84;4377506;32;20096;-93
2023/03/15 09:23:01;;;;;;;8.07;2.00;;;;;;;8.26;59.64;98887.03;4369959;32;20122;-93
2023/03/15 09:25:27;;;;;;;5.03;2.30;;;;;;;7.78;59.62;98887.87;4370712;32;20062;-95
2023/03/15 09:27:53;;;;;;;5.75;2.40;;;;;;;7.98;59.62;98898.41;4358998;32;20146;-95
2023/03/15 09:30:18;;;;;;;10.63;2.55;;;;;;;8.14;59.64;98896.13;4360924;32;20360;-96
2023/03/15 09:32:53;;;;;;;5.72;2.15;;;;;;;8.15;59.64;98903.00;4382031;32;20089;-95
2023/03/15 09:35:19;;;;;;;6.80;2.25;;;;;;;8.08;59.64;98913.66;4360911;32;20108;-95
2023/03/15 09:37:46;;;;;;;5.93;1.90;;;;;;;8.08;59.64;98913.66;4358637;32;20113;-93
2023/03/15 09:40:23;;;;;;;6.97;1.98;;;;;;;7.90;59.61;98922.91;4362694;32;20109;-95
2023/03/15 09:42:48;;;;;;;6.55;2.05;;;;;;;7.96;59.63;98920.09;4370857;32;20102;-96
2023/03/15 09:45:51;;;;;;;7.32;2.53;;;;;;;7.95;59.63;98915.81;4388010;32;20120;-93
2023/03/15 09:48:25;;;;;;;6.43;2.33;;;;;;;8.18;59.64;98921.03;4387892;32;20051;-95
2023/03/15 09:50:53;;;;;;;6.43;2.08;;;;;;;8.16;59.63;98929.75;4371402;32;20086;-95
2023/03/15 09:53:25;;;;;;;6.85;2.62;;;;;;;8.37;59.64;98907.44;4385534;32;20106;-95
2023/03/15 09:55:51;;;;;;;8.80;2.42;;;;;;;8.27;59.64;98912.91;4392838;32;20111;-94
2023/03/15 09:58:22;;;;;;;4.78;1.67;;;;;;;8.42;59.65;98911.56;4404892;32;20121;-95
2023/03/15 10:00:50;;;;;;;5.90;2.15;;;;;;;8.46;59.66;98926.09;4413603;32;20058;-94
2023/03/15 10:03:41;;;;;;;3.42;1.80;;;;;;;8.43;59.64;98920.19;4392708;32;20135;-95
2023/03/15 10:06:25;;;;;;;7.28;1.67;;;;;;;8.42;59.65;98921.94;4401322;32;20098;-94
2023/03/15 10:08:56;;;;;;;5.07;1.70;;;;;;;8.48;59.65;98918.25;4376285;32;20089;-95
2023/03/15 10:11:44;;;;;;;4.93;1.85;;;;;;;8.51;59.66;98925.94;4412876;32;20081;-96
2023/03/15 10:14:46;;;;;;;6.47;1.95;;;;;;;8.80;59.66;98924.88;4412743;32;20173;-95
2023/03/15 10:17:12;;;;;;;6.55;2.30;;;;;;;8.88;59.67;98935.78;4402439;32;20768;-95
2023/03/15 10:19:43;;;;;;;5.07;2.78;;;;;;;8.82;59.68;98930.84;4393036;32;20466;-95
2023/03/15 10:22:15;;;;;;;8.63;2.20;;;;;;;9.01;59.68;98921.44;4410088;32;20667;-95
2023/03/15 10:24:45;;;;;;;10.63;2.92;;;;;;;8.84;59.68;98921.25;4397399;32;20109;-95
2023/03/15 10:27:21;;;;;;;8.60;1.70;;;;;;;9.03;59.68;98934.37;4413457;32;20131;-95
2023/03/15 10:29:48;;;;;;;14.18;5.22;;;;;;;8.93;59.67;98931.25;4412115;32;20736;-95
2023/03/15 10:32:17;;;;;;;4.72;2.60;;;;;;;8.86;59.67;98941.03;4411480;32;20725;-96
2023/03/15 10:34:46;;;;;;;10.13;2.17;;;;;;;8.78;59.67;98945.69;4422463;32;20101;-95
2023/03/15 10:37:12;;;;;;;8.15;2.00;;;;;;;8.84;59.68;98945.44;4401107;32;20131;-95
2023/03/15 10:39:37;;;;;;;6.47;2.30;;;;;;;8.77;59.67;98958.72;4402161;32;20098;-95
2023/03/15 10:42:02;;;;;;;6.93;2.10;;;;;;;8.82;59.68;98951.59;4395897;32;20169;-95
2023/03/15 10:44:28;;;;;;;8.05;2.12;;;;;;;8.68;59.67;98953.84;4388916;32;20165;-96
2023/03/15 10:47:08;;;;;;;5.03;1.85;;;;;;;8.68;59.67;98957.28;4397946;32;20159;-95
2023/03/15 10:49:40;;;;;;;7.80;2.08;;;;;;;8.76;59.67;98954.44;4387662;32;20135;-95
2023/03/15 10:52:05;;;;;;;5.12;1.77;;;;;;;8.88;59.67;98970.38;4400203;32;20110;-92
2023/03/15 10:54:34;;;;;;;6.12;2.10;;;;;;;8.88;59.67;98967.78;4399857;32;20158;-96
2023/03/15 10:57:04;;;;;;;6.68;1.77;;;;;;;8.67;59.67;98962.53;4405953;32;20097;-96
2023/03/15 10:59:34;;;;;;;10.13;2.37;;;;;;;8.72;59.67;98973.59;4388169;32;20101;-93
2023/03/15 11:02:11;;;;;;;10.63;2.80;;;;;;;8.74;59.66;98987.34;4400572;32;20058;-94
2023/03/15 11:04:52;;;;;;;7.30;1.98;;;;;;;8.77;59.67;98971.69;4402865;32;20101;-94
2023/03/15 11:07:17;;;;;;;5.60;2.08;;;;;;;8.66;59.66;98989.38;4412949;32;20857;-95
2023/03/15 11:09:44;;;;;;;3.70;1.62;;;;;;;8.71;59.67;98990.91;4392897;32;20118;-94
2023/03/15 11:12:38;;;;;;;5.80;2.10;;;;;;;8.83;59.67;98987.87;4397521;32;20753;-95
2023/03/15 11:15:09;;;;;;;3.83;1.62;;;;;;;8.56;59.66;98994.06;4396570;32;20157;-93
2023/03/15 11:17:40;;;;;;;6.55;2.10;;;;;;;8.78;59.67;98983.75;4403440;32;20172;-96
2023/03/15 11:20:29;;;;;;;5.75;2.10;;;;;;;8.74;59.67;98998.56;4398236;32;20798;-95
2023/03/15 11:22:55;;;;;;;7.10;2.10;;;;;;;8.93;59.68;99003.94;4391335;32;20427;-93
2023/03/15 11:25:25;;;;;;;10.30;2.40;;;;;;;9.03;59.69;98978.50;4398551;32;20169;-95
2023/03/15 11:27:52;;;;;;;4.37;1.77;;;;;;;8.84;59.68;98993.91;4412548;32;20118;-94
2023/03/15 11:30:18;;;;;;;2.97;1.80;;;;;;;8.95;59.68;98996.94;4399789;32;20158;-95
2023/03/15 11:32:43;;;;;;;5.28;2.28;;;;;;;8.79;59.67;98978.50;4396168;32;20573;-92
2023/03/15 11:35:14;;;;;;;6.80;2.00;;;;;;;8.80;59.67;98992.31;4397638;32;20167;-94
2023/03/15 11:37:52;;;;;;;6.10;2.05;;;;;;;8.90;59.68;98989.31;4396148;32;20118;-96
2023/03/15 11:40:31;;;;;;;4.07;2.05;;;;;;;8.83;59.68;98994.81;4402170;32;20050;-94
2023/03/15 11:43:00;;;;;;;5.30;3.03;;;;;;;8.95;59.68;98991.75;4398640;32;20090;-95